Time;durP1;ratioP1;P1;durP2;ratioP2;P2;SDS_P1;SDS_P2;PMS_P1;PMS_P2;Temp;Humidity;BMP_temperature;BMP_pressure;BME280_temperature;BME280_humidity;BME280_pressure;Samples;Min_cycle;Max_cycle;Signal;HPM_P1;HPM_P2
2023/07/25 00:01:00;;;;;;;19.00;7.72;;;;;;;;;;5093531;28;20062;-76
2023/07/25 00:03:26;;;;;;;16.15;8.65;;;26.20;99.90;;;;;;5093384;28;20403;-77
2023/07/25 00:05:52;;;;;;;17.23;9.60;;;26.20;99.90;;;;;;5106963;28;20493;-76
2023/07/25 00:08:17;;;;;;;20.00;8.63;;;26.20;99.90;;;;;;5105912;28;20028;-77
2023/07/25 00:10:44;;;;;;;18.25;8.75;;;26.20;99.90;;;;;;5098035;28;20023;-77
2023/07/25 00:13:09;;;;;;;30.92;9.07;;;26.10;99.90;;;;;;5114024;28;20034;-77
2023/07/25 00:15:36;;;;;;;17.60;10.13;;;26.10;99.90;;;;;;5111709;28;20015;-77
2023/07/25 00:18:03;;;;;;;17.17;8.52;;;26.00;99.90;;;;;;5093763;28;20073;-76
2023/07/25 00:20:28;;;;;;;16.10;7.45;;;26.00;99.90;;;;;;5097319;28;20008;-77
2023/07/25 00:22:54;;;;;;;18.75;9.48;;;26.00;99.90;;;;;;5114399;28;20055;-76
2023/07/25 00:25:20;;;;;;;17.38;9.35;;;26.00;99.90;;;;;;5114133;28;20036;-75
2023/07/25 00:27:46;;;;;;;17.58;8.35;;;26.00;99.90;;;;;;5114554;28;20503;-77
2023/07/25 00:30:12;;;;;;;19.52;9.00;;;26.00;99.90;;;;;;5112512;28;20114;-77
2023/07/25 00:32:38;;;;;;;18.23;8.75;;;26.00;99.90;;;;;;5099545;28;20032;-76
2023/07/25 00:35:04;;;;;;;20.00;10.20;;;26.00;99.90;;;;;;5093445;28;20118;-76
2023/07/25 00:37:31;;;;;;;17.40;9.18;;;25.90;99.90;;;;;;5110337;28;20032;-77
2023/07/25 00:39:57;;;;;;;18.42;8.93;;;25.80;99.90;;;;;;5113819;28;20060;-78
2023/07/25 00:42:23;;;;;;;16.70;9.00;;;25.80;99.90;;;;;;5112354;28;20047;-77
2023/07/25 00:44:50;;;;;;;17.58;9.60;;;25.70;99.90;;;;;;5112661;28;20093;-76
2023/07/25 00:47:17;;;;;;;23.45;10.15;;;25.60;99.90;;;;;;5113604;28;20524;-74
2023/07/25 00:49:45;;;;;;;20.88;10.82;;;25.50;99.90;;;;;;5113878;28;20047;-77
2023/07/25 00:52:11;;;;;;;19.40;10.15;;;25.40;99.90;;;;;;5113463;28;20035;-77
2023/07/25 00:54:48;;;;;;;18.75;9.98;;;25.40;99.90;;;;;;5113491;28;20020;-77
2023/07/25 00:57:19;;;;;;;17.65;9.50;;;25.30;99.90;;;;;;5110872;28;20030;-77
2023/07/25 00:59:46;;;;;;;18.88;9.57;;;25.30;99.90;;;;;;5113096;28;20031;-77
2023/07/25 01:02:14;;;;;;;18.58;10.30;;;25.20;99.90;;;;;;5114034;28;20036;-76
2023/07/25 01:04:40;;;;;;;19.77;10.60;;;25.20;99.90;;;;;;5112827;28;20024;-76
2023/07/25 01:07:07;;;;;;;18.67;9.80;;;25.10;99.90;;;;;;5112404;28;20035;-74
2023/07/25 01:09:41;;;;;;;22.55;10.30;;;25.00;99.90;;;;;;5112744;28;20027;-76
2023/07/25 01:12:07;;;;;;;19.70;10.75;;;24.90;99.90;;;;;;5114282;28;20478;-72
2023/07/25 01:14:34;;;;;;;25.45;11.20;;;24.80;99.90;;;;;;5113853;28;20398;-75
2023/07/25 01:17:06;;;;;;;20.25;10.93;;;24.80;99.90;;;;;;5113887;28;20031;-74
2023/07/25 01:19:34;;;;;;;20.63;10.40;;;24.80;99.90;;;;;;5112617;28;20044;-75
2023/07/25 01:22:00;;;;;;;21.05;11.48;;;24.80;99.90;;;;;;5112098;28;20721;-74
2023/07/25 01:24:26;;;;;;;26.20;11.43;;;24.60;99.90;;;;;;5113353;28;20489;-75
2023/07/25 01:26:52;;;;;;;17.38;10.55;;;24.60;99.90;;;;;;5111396;28;20027;-74
2023/07/25 01:29:18;;;;;;;23.48;12.15;;;24.60;99.90;;;;;;5112505;28;20529;-75
2023/07/25 01:31:46;;;;;;;20.95;11.18;;;24.60;99.90;;;;;;5111958;28;20114;-78
2023/07/25 01:34:12;;;;;;;24.77;10.48;;;24.70;99.90;;;;;;5112411;28;20030;-76
2023/07/25 01:36:38;;;;;;;21.90;11.13;;;24.70;99.90;;;;;;5112430;28;20387;-75
2023/07/25 01:39:04;;;;;;;19.23;10.57;;;24.70;99.90;;;;;;5112458;28;20038;-75
2023/07/25 01:41:30;;;;;;;23.70;12.18;;;24.70;99.90;;;;;;5112952;28;20241;-76
2023/07/25 01:43:55;;;;;;;20.10;11.07;;;24.80;99.90;;;;;;5112248;28;20042;-76
2023/07/25 01:46:21;;;;;;;20.30;11.60;;;24.80;99.90;;;;;;5113504;28;20035;-76
2023/07/25 01:48:47;;;;;;;19.77;11.15;;;24.80;99.90;;;;;;5113000;28;20036;-76
2023/07/25 01:51:13;;;;;;;22.25;12.02;;;24.70;99.90;;;;;;5113371;28;20049;-76
2023/07/25 01:53:39;;;;;;;19.70;12.60;;;24.60;99.90;;;;;;5112477;28;20103;-75
2023/07/25 01:56:05;;;;;;;20.88;12.02;;;24.60;99.90;;;;;;5113189;28;20023;-75
2023/07/25 01:58:30;;;;;;;22.40;12.38;;;24.60;99.90;;;;;;5110737;28;20036;-76
2023/07/25 02:01:00;;;;;;;22.65;12.32;;;24.60;99.90;;;;;;5111581;28;20038;-76
2023/07/25 02:03:27;;;;;;;18.55;11.68;;;24.60;99.90;;;;;;5111574;28;20474;-76
2023/07/25 02:05:53;;;;;;;21.58;12.50;;;24.70;99.90;;;;;;5111745;28;20528;-76
2023/07/25 02:08:19;;;;;;;23.83;12.68;;;24.80;99.90;;;;;;5111752;28;20043;-76
2023/07/25 02:10:45;;;;;;;18.35;11.02;;;24.80;99.90;;;;;;5112588;28;20034;-76
2023/07/25 02:13:11;;;;;;;21.73;12.55;;;24.80;99.90;;;;;;5111883;28;20390;-76
2023/07/25 02:15:37;;;;;;;21.08;10.93;;;24.80;99.90;;;;;;5109819;28;20046;-76
2023/07/25 02:18:03;;;;;;;23.00;11.70;;;24.80;99.90;;;;;;5105011;28;20027;-76
2023/07/25 02:20:32;;;;;;;19.83;10.95;;;24.90;99.90;;;;;;5110498;28;20165;-76
2023/07/25 02:22:59;;;;;;;19.35;11.35;;;24.90;99.90;;;;;;5111586;28;20063;-76
2023/07/25 02:25:25;;;;;;;24.17;11.50;;;24.90;99.90;;;;;;5111189;28;20019;-76
2023/07/25 02:27:51;;;;;;;20.83;11.32;;;25.00;99.90;;;;;;5111206;28;20032;-76
2023/07/25 02:30:18;;;;;;;24.85;11.05;;;24.90;99.90;;;;;;5112464;28;20054;-76
2023/07/25 02:32:44;;;;;;;22.98;11.50;;;24.90;99.90;;;;;;5110360;28;20028;-76
2023/07/25 02:35:09;;;;;;;21.23;11.25;;;24.90;99.90;;;;;;5112401;28;20023;-76
2023/07/25 02:37:35;;;;;;;19.55;10.52;;;24.90;99.90;;;;;;5111936;28;20534;-75
2023/07/25 02:40:02;;;;;;;22.33;11.90;;;24.90;99.90;;;;;;5112419;28;20034;-75
2023/07/25 02:42:27;;;;;;;23.17;11.25;;;24.90;99.90;;;;;;5093471;28;20039;-75
2023/07/25 02:44:53;;;;;;;22.75;12.07;;;24.90;99.90;;;;;;5112752;28;20030;-74
2023/07/25 02:47:19;;;;;;;21.63;11.00;;;24.90;99.90;;;;;;5112526;28;20504;-75
2023/07/25 02:49:45;;;;;;;18.48;11.48;;;24.80;99.90;;;;;;5110283;28;20538;-74
2023/07/25 02:52:10;;;;;;;21.10;11.70;;;24.70;99.90;;;;;;5111056;28;20390;-76
2023/07/25 02:54:36;;;;;;;21.15;13.52;;;24.50;99.90;;;;;;5111107;28;20081;-76
2023/07/25 02:57:06;;;;;;;24.13;12.75;;;24.30;99.90;;;;;;5112507;28;20057;-76
2023/07/25 02:59:32;;;;;;;21.67;13.35;;;24.20;99.90;;;;;;5109973;28;20427;-76
2023/07/25 03:01:58;;;;;;;21.98;12.57;;;24.10;99.90;;;;;;5090987;28;20111;-73
2023/07/25 03:04:23;;;;;;;22.00;12.75;;;24.10;99.90;;;;;;5107460;28;20103;-76
2023/07/25 03:06:49;;;;;;;23.27;12.25;;;24.10;99.90;;;;;;5111217;28;20531;-76
2023/07/25 03:09:15;;;;;;;23.52;13.27;;;24.00;99.90;;;;;;5110837;28;20024;-76
2023/07/25 03:11:41;;;;;;;21.98;11.80;;;24.00;99.90;;;;;;5112541;28;20073;-75
2023/07/25 03:14:07;;;;;;;21.60;11.95;;;24.00;99.90;;;;;;5112162;28;21596;-76
2023/07/25 03:16:33;;;;;;;20.55;11.05;;;24.00;99.90;;;;;;5112346;28;20474;-75
2023/07/25 03:18:58;;;;;;;35.83;13.20;;;23.90;99.90;;;;;;5111915;28;20019;-76
2023/07/25 03:21:24;;;;;;;19.58;11.93;;;23.90;99.90;;;;;;5112283;28;20489;-76
2023/07/25 03:23:50;;;;;;;26.27;13.07;;;23.90;99.90;;;;;;5111788;28;20375;-75
2023/07/25 03:26:16;;;;;;;19.85;12.75;;;24.00;99.90;;;;;;5112243;28;20106;-75
2023/07/25 03:28:42;;;;;;;26.25;13.80;;;24.10;99.90;;;;;;5112063;28;20036;-75
2023/07/25 03:31:08;;;;;;;21.73;13.65;;;24.10;99.90;;;;;;5110882;28;20035;-76
2023/07/25 03:33:34;;;;;;;23.27;14.43;;;24.20;99.90;;;;;;5112161;28;20024;-76
2023/07/25 03:36:00;;;;;;;21.17;13.23;;;24.20;99.90;;;;;;5110584;28;20035;-76
2023/07/25 03:38:25;;;;;;;22.85;13.65;;;24.20;99.90;;;;;;5111494;28;20027;-76
2023/07/25 03:40:51;;;;;;;20.45;12.70;;;24.20;99.90;;;;;;5111872;28;20048;-76
2023/07/25 03:43:17;;;;;;;23.17;12.40;;;24.30;99.90;;;;;;5110633;28;20126;-76
2023/07/25 03:45:43;;;;;;;20.92;12.02;;;24.30;99.90;;;;;;5111950;28;20040;-75
2023/07/25 03:48:10;;;;;;;20.95;10.65;;;24.40;99.90;;;;;;5111337;28;20023;-76
2023/07/25 03:50:36;;;;;;;20.85;11.60;;;24.60;99.90;;;;;;5115403;28;20120;-71
2023/07/25 03:53:04;;;;;;;22.70;10.82;;;24.60;99.90;;;;;;5114226;28;20469;-73
2023/07/25 03:55:30;;;;;;;19.98;11.27;;;24.70;99.90;;;;;;5115667;28;20046;-75
2023/07/25 03:57:56;;;;;;;19.35;10.68;;;24.80;99.90;;;;;;5114111;28;20469;-76
2023/07/25 04:00:23;;;;;;;30.73;18.38;;;25.00;99.90;;;;;;5114949;28;20090;-76
2023/07/25 04:02:48;;;;;;;21.63;12.18;;;25.30;99.90;;;;;;5115266;28;20481;-76
2023/07/25 04:05:15;;;;;;;16.63;10.35;;;25.50;99.90;;;;;;5115403;28;20023;-76
2023/07/25 04:07:41;;;;;;;19.90;10.45;;;25.80;99.90;;;;;;5113385;28;20027;-76
2023/07/25 04:10:07;;;;;;;21.23;9.93;;;25.90;99.90;;;;;;5113630;28;20376;-76
2023/07/25 04:12:33;;;;;;;20.23;11.02;;;26.20;99.90;;;;;;5114595;28;20016;-77
2023/07/25 04:14:59;;;;;;;22.00;11.10;;;26.40;99.90;;;;;;5115000;28;20038;-77
2023/07/25 04:17:25;;;;;;;24.73;11.35;;;26.60;99.90;;;;;;5114840;28;20023;-77
2023/07/25 04:19:50;;;;;;;18.42;10.93;;;26.80;99.90;;;;;;5113628;28;20054;-76
2023/07/25 04:22:16;;;;;;;19.95;10.13;;;26.80;99.90;;;;;;5114729;27;20031;-76
2023/07/25 04:24:42;;;;;;;19.33;10.52;;;27.10;99.90;;;;;;5113599;28;20031;-77
2023/07/25 04:27:08;;;;;;;21.58;10.77;;;27.30;99.90;;;;;;5114906;28;20024;-76
2023/07/25 04:29:34;;;;;;;22.88;10.65;;;27.50;99.90;;;;;;5114666;28;20382;-77
2023/07/25 04:31:59;;;;;;;18.25;10.93;;;27.80;99.90;;;;;;5113066;28;20114;-76
2023/07/25 04:34:25;;;;;;;23.52;9.98;;;28.30;99.90;;;;;;5113317;28;20020;-76
2023/07/25 04:36:51;;;;;;;26.65;10.10;;;28.50;99.90;;;;;;5111901;28;20177;-77
2023/07/25 04:39:18;;;;;;;19.75;9.77;;;;;;;;;;5114534;28;20031;-76
2023/07/25 04:41:44;;;;;;;17.30;9.93;;;28.80;99.90;;;;;;5112798;28;20127;-76
2023/07/25 04:44:10;;;;;;;18.40;8.40;;;28.80;99.70;;;;;;5114336;28;20236;-77
2023/07/25 04:46:36;;;;;;;16.55;8.82;;;29.30;99.30;;;;;;5113254;28;20087;-77
2023/07/25 04:49:02;;;;;;;18.58;8.82;;;29.70;96.30;;;;;;5114469;28;20413;-77
2023/07/25 04:51:27;;;;;;;19.70;9.20;;;29.80;97.20;;;;;;5114004;28;20015;-77
2023/07/25 04:53:53;;;;;;;22.83;9.52;;;30.30;97.50;;;;;;5112769;27;20023;-77
2023/07/25 04:56:19;;;;;;;14.82;8.27;;;30.50;95.40;;;;;;5112108;28;20044;-76
2023/07/25 04:58:45;;;;;;;18.30;8.68;;;30.70;94.60;;;;;;5114027;28;20030;-76
2023/07/25 05:01:12;;;;;;;17.48;8.10;;;30.70;95.20;;;;;;5105838;28;20044;-75
2023/07/25 05:03:38;;;;;;;20.08;8.90;;;30.60;93.10;;;;;;5107661;28;20470;-74
2023/07/25 05:06:03;;;;;;;15.75;7.63;;;30.40;93.40;;;;;;5109669;28;20034;-75
2023/07/25 05:08:29;;;;;;;20.52;9.73;;;30.20;94.30;;;;;;5105862;28;20100;-76
2023/07/25 05:10:55;;;;;;;17.67;8.57;;;30.10;94.80;;;;;;5093563;28;20425;-77
2023/07/25 05:13:21;;;;;;;15.60;8.43;;;29.90;95.70;;;;;;5093625;28;20056;-74
2023/07/25 05:15:47;;;;;;;24.63;8.90;;;30.00;94.50;;;;;;5097784;28;20016;-74
2023/07/25 05:18:12;;;;;;;19.13;9.15;;;30.00;95.10;;;;;;5104708;28;20028;-76
2023/07/25 05:20:38;;;;;;;16.92;8.45;;;30.10;93.80;;;;;;5107004;28;20379;-77
2023/07/25 05:23:04;;;;;;;15.93;7.90;;;30.10;92.30;;;;;;5093076;28;20032;-73
2023/07/25 05:25:30;;;;;;;16.90;8.85;;;29.30;91.70;;;;;;5096258;28;20027;-76
2023/07/25 05:27:56;;;;;;;18.02;8.95;;;29.50;92.40;;;;;;5099814;28;20039;-74
2023/07/25 05:30:21;;;;;;;13.75;7.78;;;29.60;92.20;;;;;;5093321;28;20020;-74
2023/07/25 05:32:49;;;;;;;19.15;8.77;;;29.50;91.90;;;;;;5093348;28;20038;-74
2023/07/25 05:35:15;;;;;;;14.43;7.65;;;29.80;93.00;;;;;;5106181;28;20502;-76
2023/07/25 05:37:41;;;;;;;15.48;7.72;;;29.60;91.10;;;;;;5105994;28;20399;-76
2023/07/25 05:40:07;;;;;;;13.80;8.18;;;30.10;92.70;;;;;;5093220;28;20042;-73
2023/07/25 05:42:33;;;;;;;18.25;8.52;;;30.10;91.70;;;;;;5072485;28;20053;-75
2023/07/25 05:45:00;;;;;;;17.58;8.07;;;30.20;91.40;;;;;;5072512;28;20079;-76
2023/07/25 05:47:27;;;;;;;19.70;8.25;;;30.30;91.20;;;;;;5078544;28;20028;-76
2023/07/25 05:49:53;;;;;;;17.00;8.55;;;30.60;91.90;;;;;;5087677;28;20020;-75
2023/07/25 05:52:19;;;;;;;19.13;8.60;;;30.60;90.40;;;;;;5076963;28;20486;-75
2023/07/25 05:54:45;;;;;;;17.33;7.93;;;30.30;90.60;;;;;;5091796;28;20024;-73
2023/07/25 05:57:10;;;;;;;14.90;7.88;;;30.50;92.10;;;;;;5092642;28;20387;-76
2023/07/25 05:59:36;;;;;;;17.25;8.35;;;30.50;90.70;;;;;;5091902;28;20020;-73
2023/07/25 06:02:03;;;;;;;19.00;10.05;;;30.70;91.70;;;;;;5092791;28;20068;-76
2023/07/25 06:04:30;;;;;;;14.27;7.65;;;30.70;90.80;;;;;;5091770;28;20095;-74
2023/07/25 06:06:55;;;;;;;15.80;8.98;;;30.50;89.50;;;;;;5088770;28;20104;-76
2023/07/25 06:09:22;;;;;;;16.17;8.88;;;30.60;91.50;;;;;;5081824;28;20489;-74
2023/07/25 06:11:47;;;;;;;15.52;8.50;;;30.60;91.60;;;;;;5091618;28;20051;-76
2023/07/25 06:14:13;;;;;;;18.67;9.57;;;30.70;89.80;;;;;;5090773;28;20476;-76
2023/07/25 06:16:40;;;;;;;20.98;10.48;;;30.80;92.10;;;;;;5092017;28;20383;-76
2023/07/25 06:19:06;;;;;;;16.23;8.80;;;30.80;91.20;;;;;;5092044;28;20395;-73
2023/07/25 06:21:32;;;;;;;19.13;9.38;;;30.90;91.60;;;;;;5091846;28;20040;-75
2023/07/25 06:23:58;;;;;;;15.68;8.50;;;30.80;90.60;;;;;;5091678;28;20485;-76
2023/07/25 06:26:24;;;;;;;19.08;8.77;;;31.00;90.60;;;;;;5089126;28;20027;-76
2023/07/25 06:28:51;;;;;;;27.95;12.80;;;31.00;90.90;;;;;;5096168;28;20038;-74
2023/07/25 06:31:17;;;;;;;20.00;11.43;;;30.90;90.40;;;;;;5089558;28;20418;-74
2023/07/25 06:33:43;;;;;;;25.02;12.23;;;31.00;90.50;;;;;;5092181;28;20114;-76
2023/07/25 06:36:08;;;;;;;26.08;10.60;;;30.90;90.70;;;;;;5090155;28;20028;-76
2023/07/25 06:38:34;;;;;;;28.02;11.90;;;31.10;91.20;;;;;;5091567;28;20089;-76
2023/07/25 06:41:03;;;;;;;18.98;10.52;;;31.10;90.70;;;;;;5087669;28;20043;-75
2023/07/25 06:43:32;;;;;;;22.52;10.93;;;31.10;90.40;;;;;;5111828;28;20126;-76
2023/07/25 06:46:01;;;;;;;18.85;9.18;;;31.40;91.20;;;;;;5095485;28;20420;-74
2023/07/25 06:48:27;;;;;;;18.90;9.70;;;31.30;90.20;;;;;;5112829;28;20023;-76
2023/07/25 06:50:53;;;;;;;23.20;10.63;;;31.60;91.40;;;;;;5113310;28;20100;-76
2023/07/25 06:53:19;;;;;;;19.38;9.63;;;31.80;91.20;;;;;;5111915;28;20028;-75
2023/07/25 06:55:45;;;;;;;20.08;10.10;;;31.90;90.50;;;;;;5112104;28;20035;-76
2023/07/25 06:58:11;;;;;;;18.70;10.18;;;32.10;90.90;;;;;;5103713;28;20114;-75
2023/07/25 07:00:37;;;;;;;17.98;10.32;;;31.90;88.70;;;;;;5091674;28;20059;-74
2023/07/25 07:03:05;;;;;;;25.00;11.05;;;32.20;91.00;;;;;;5100904;28;20173;-74
2023/07/25 07:05:34;;;;;;;17.58;9.55;;;32.40;90.60;;;;;;5097970;28;20406;-76
2023/07/25 07:08:00;;;;;;;19.65;11.10;;;32.60;90.20;;;;;;5109483;28;20122;-75
2023/07/25 07:10:26;;;;;;;18.52;10.20;;;32.70;90.10;;;;;;5112108;28;20038;-77
2023/07/25 07:12:53;;;;;;;22.33;11.35;;;32.80;89.70;;;;;;5102532;28;20028;-77
2023/07/25 07:15:24;;;;;;;22.25;11.18;;;32.80;89.00;;;;;;5112332;28;20066;-75
2023/07/25 07:17:52;;;;;;;16.25;8.80;;;32.40;87.50;;;;;;5112214;28;20449;-74
2023/07/25 07:20:18;;;;;;;24.23;11.85;;;32.30;88.30;;;;;;5094288;28;20031;-76
2023/07/25 07:22:43;;;;;;;19.63;10.77;;;32.20;90.10;;;;;;5112152;28;20036;-76
2023/07/25 07:25:09;;;;;;;23.30;12.20;;;32.30;90.90;;;;;;5115967;28;20038;-77
2023/07/25 07:27:35;;;;;;;19.85;12.05;;;32.30;90.20;;;;;;5115994;28;20055;-76
2023/07/25 07:30:03;;;;;;;17.70;10.20;;;32.50;90.20;;;;;;5116141;28;20381;-75
2023/07/25 07:32:29;;;;;;;17.55;10.63;;;32.60;90.90;;;;;;5116157;28;20436;-77
2023/07/25 07:34:54;;;;;;;19.27;10.43;;;32.80;91.10;;;;;;5116481;28;20012;-75
2023/07/25 07:37:20;;;;;;;18.75;11.52;;;32.80;90.70;;;;;;5116024;28;20122;-76
2023/07/25 07:39:46;;;;;;;23.63;11.43;;;32.90;90.60;;;;;;5114196;28;20020;-76
2023/07/25 07:42:12;;;;;;;22.10;10.00;;;33.00;90.70;;;;;;5115306;28;20049;-77
2023/07/25 07:44:37;;;;;;;22.10;11.52;;;33.00;90.40;;;;;;5115591;28;20032;-73
2023/07/25 07:47:04;;;;;;;20.63;10.93;;;;;;;;;;5115671;28;20023;-75
2023/07/25 07:49:32;;;;;;;19.77;11.30;;;33.10;88.90;;;;;;5114732;28;20019;-77
2023/07/25 07:51:58;;;;;;;25.15;11.80;;;33.30;89.10;;;;;;5102667;28;20030;-77
2023/07/25 07:54:24;;;;;;;17.58;11.25;;;33.40;88.60;;;;;;5115445;28;20028;-73
2023/07/25 07:56:50;;;;;;;23.48;11.75;;;33.60;90.10;;;;;;5097500;28;20057;-76
2023/07/25 07:59:15;;;;;;;20.90;11.88;;;33.50;87.60;;;;;;5114869;28;20031;-75
2023/07/25 08:01:41;;;;;;;15.65;10.80;;;33.60;87.70;;;;;;5097438;28;20048;-76
2023/07/25 08:04:08;;;;;;;19.25;10.05;;;33.70;88.20;;;;;;5111543;28;20489;-76
2023/07/25 08:06:33;;;;;;;17.77;10.02;;;33.80;88.40;;;;;;5095010;28;20030;-74
2023/07/25 08:08:59;;;;;;;21.45;10.70;;;33.80;87.70;;;;;;5114369;28;20103;-76
2023/07/25 08:11:25;;;;;;;15.93;10.18;;;33.90;88.00;;;;;;5114731;28;20468;-73
2023/07/25 08:13:51;;;;;;;20.33;10.35;;;33.90;87.70;;;;;;5115355;28;20036;-74
2023/07/25 08:16:16;;;;;;;21.77;10.48;;;34.00;87.70;;;;;;5114177;28;20413;-76
2023/07/25 08:18:42;;;;;;;17.38;10.35;;;34.10;87.30;;;;;;5108527;28;20043;-74
2023/07/25 08:21:08;;;;;;;18.23;10.57;;;34.20;85.70;;;;;;5111440;28;20069;-76
2023/07/25 08:23:34;;;;;;;18.33;9.38;;;34.20;86.80;;;;;;5102442;28;20023;-74
2023/07/25 08:25:59;;;;;;;18.27;9.38;;;34.40;87.00;;;;;;5099411;28;20371;-75
2023/07/25 08:28:25;;;;;;;20.60;10.95;;;34.50;87.10;;;;;;5114884;28;20024;-74
2023/07/25 08:31:02;;;;;;;21.38;10.98;;;34.60;87.70;;;;;;5114599;28;20377;-75
2023/07/25 08:33:31;;;;;;;18.98;10.35;;;34.50;87.90;;;;;;5100455;28;20030;-74
2023/07/25 08:35:57;;;;;;;18.55;10.82;;;34.60;87.60;;;;;;5114094;28;20031;-75
2023/07/25 08:38:23;;;;;;;24.40;11.98;;;34.80;97.20;;;;;;5114432;28;20038;-76
2023/07/25 08:41:01;;;;;;;18.35;10.63;;;34.80;87.30;;;;;;5114332;28;20032;-78
2023/07/25 08:43:29;;;;;;;17.02;9.30;;;34.80;85.30;;;;;;5113917;28;20031;-78
2023/07/25 08:45:58;;;;;;;18.55;9.77;;;34.80;86.40;;;;;;5114929;28;20766;-78
2023/07/25 08:48:25;;;;;;;19.08;11.10;;;34.80;85.60;;;;;;5114310;27;20035;-75
2023/07/25 08:50:54;;;;;;;17.65;8.25;;;34.80;84.80;;;;;;5114308;28;20044;-78
2023/07/25 08:53:23;;;;;;;17.17;8.27;;;34.70;84.00;;;;;;5106508;28;20027;-78
2023/07/25 08:55:50;;;;;;;17.40;9.23;;;34.90;85.30;;;;;;5094014;28;20069;-78
2023/07/25 08:58:16;;;;;;;20.00;9.27;;;35.10;85.30;;;;;;5103763;28;20112;-77
2023/07/25 09:00:43;;;;;;;16.08;7.97;;;35.30;87.60;;;;;;5101470;28;20479;-76
2023/07/25 09:03:09;;;;;;;21.40;9.20;;;35.40;85.50;;;;;;5113977;28;20023;-76
2023/07/25 09:05:36;;;;;;;21.15;9.00;;;;;;;;;;5108585;28;20019;-78
2023/07/25 09:08:02;;;;;;;18.15;8.38;;;35.70;85.50;;;;;;5113629;28;20054;-76
2023/07/25 09:10:28;;;;;;;15.98;7.28;;;35.90;85.80;;;;;;5113577;28;20027;-77
2023/07/25 09:12:54;;;;;;;17.30;8.27;;;35.80;82.90;;;;;;5113654;28;20020;-76
2023/07/25 09:15:20;;;;;;;19.48;8.15;;;35.90;82.40;;;;;;5085001;28;20566;-78
2023/07/25 09:17:47;;;;;;;15.20;8.02;;;35.90;80.80;;;;;;5100950;28;20043;-76
2023/07/25 09:20:13;;;;;;;14.30;7.82;;;36.00;80.70;;;;;;5106793;28;20058;-75
2023/07/25 09:22:39;;;;;;;17.70;8.27;;;35.90;82.10;;;;;;5102500;28;20479;-77
2023/07/25 09:25:07;;;;;;;20.38;7.80;;;36.10;82.20;;;;;;5113498;28;20023;-76
2023/07/25 09:27:34;;;;;;;16.27;7.25;;;36.10;82.60;;;;;;5112601;28;20032;-78
2023/07/25 09:30:00;;;;;;;18.80;8.07;;;36.30;81.90;;;;;;5109314;28;20028;-77
2023/07/25 09:32:27;;;;;;;18.38;7.60;;;36.40;83.70;;;;;;5113418;28;20030;-78
2023/07/25 09:35:01;;;;;;;16.75;7.07;;;;;;;;;;5113279;28;20020;-77
2023/07/25 09:37:30;;;;;;;17.13;7.30;;;;;;;;;;5113345;28;20015;-76
2023/07/25 09:39:56;;;;;;;14.80;6.85;;;;;;;;;;5113237;28;20024;-77
2023/07/25 09:42:23;;;;;;;17.73;7.95;;;;;;;;;;5113046;28;20108;-75
2023/07/25 09:44:51;;;;;;;16.17;7.25;;;37.40;97.10;;;;;;5113140;28;20106;-75
2023/07/25 09:47:26;;;;;;;15.82;6.55;;;;;;;;;;5112497;28;20102;-77
2023/07/25 09:49:53;;;;;;;18.45;6.75;;;36.80;92.40;;;;;;5113271;28;20027;-74
2023/07/25 09:52:19;;;;;;;16.85;7.45;;;37.30;92.20;;;;;;5113005;28;20023;-76
2023/07/25 09:54:45;;;;;;;17.13;7.38;;;37.50;94.50;;;;;;5112769;28;20386;-76
2023/07/25 09:57:11;;;;;;;15.73;7.00;;;37.40;87.70;;;;;;5112855;28;20023;-75
2023/07/25 09:59:37;;;;;;;17.80;6.55;;;37.10;76.20;;;;;;5112775;28;20032;-76
2023/07/25 10:02:04;;;;;;;16.42;6.90;;;37.40;94.40;;;;;;5112091;28;20041;-76
2023/07/25 10:04:30;;;;;;;12.70;6.55;;;37.40;93.20;;;;;;5112981;28;20051;-77
2023/07/25 10:06:59;;;;;;;12.10;6.32;;;37.40;92.60;;;;;;5112825;28;20023;-76
2023/07/25 10:09:25;;;;;;;20.60;6.97;;;;;;;;;;5112996;28;20071;-75
2023/07/25 10:11:53;;;;;;;17.20;6.57;;;;;;;;;;5113126;28;20092;-76
2023/07/25 10:14:19;;;;;;;12.65;5.30;;;37.80;96.70;;;;;;5112670;28;20088;-76
2023/07/25 10:16:46;;;;;;;18.75;7.18;;;;;;;;;;5113074;28;20023;-76
2023/07/25 10:19:12;;;;;;;18.52;6.53;;;;;;;;;;5112583;28;20020;-74
2023/07/25 10:21:56;;;;;;;17.08;6.93;;;38.00;94.40;;;;;;5112563;28;20115;-73
2023/07/25 10:24:22;;;;;;;13.93;6.03;;;38.20;90.80;;;;;;5111770;28;20031;-75
2023/07/25 10:26:52;;;;;;;14.52;5.38;;;38.00;70.80;;;;;;5112284;28;20069;-73
2023/07/25 10:29:46;;;;;;;19.77;7.13;;;38.00;70.10;;;;;;5112707;28;20024;-72
2023/07/25 10:32:17;;;;;;;13.45;5.45;;;37.90;73.60;;;;;;5109480;28;20044;-73
2023/07/25 10:34:45;;;;;;;14.65;5.93;;;38.00;72.60;;;;;;5094312;28;20024;-77
2023/07/25 10:37:25;;;;;;;15.40;6.22;;;38.30;70.80;;;;;;5112250;28;20047;-74
2023/07/25 10:40:14;;;;;;;18.83;6.30;;;38.40;72.80;;;;;;5112271;28;20115;-74
2023/07/25 10:42:58;;;;;;;19.00;5.30;;;38.30;69.90;;;;;;5101333;28;20063;-74
2023/07/25 10:45:32;;;;;;;17.83;5.60;;;38.30;69.30;;;;;;5112489;28;20470;-73
2023/07/25 10:48:02;;;;;;;15.75;5.70;;;38.20;70.20;;;;;;5112377;28;20036;-77
2023/07/25 10:50:49;;;;;;;14.15;5.68;;;38.30;70.80;;;;;;5112022;28;20054;-74
2023/07/25 10:53:22;;;;;;;17.63;5.13;;;38.40;73.90;;;;;;5112122;28;20463;-76
2023/07/25 10:56:04;;;;;;;17.85;6.38;;;;;;;;;;5112096;28;20042;-72
2023/07/25 10:58:30;;;;;;;18.05;5.70;;;38.10;69.30;;;;;;5102117;28;20547;-74
2023/07/25 11:00:57;;;;;;;17.83;5.82;;;37.90;70.30;;;;;;5115931;28;20032;-75
2023/07/25 11:03:35;;;;;;;15.00;4.95;;;37.70;72.30;;;;;;5116147;28;20101;-72
2023/07/25 11:06:07;;;;;;;13.30;5.28;;;37.40;71.90;;;;;;5116093;28;20024;-73
2023/07/25 11:08:34;;;;;;;17.65;5.13;;;;;;;;;;5115747;28;20034;-73
2023/07/25 11:11:05;;;;;;;16.55;5.07;;;37.30;72.90;;;;;;5115583;28;20019;-73
2023/07/25 11:13:36;;;;;;;13.88;5.70;;;37.30;74.10;;;;;;5115900;28;20114;-76
2023/07/25 11:16:06;;;;;;;15.05;5.10;;;37.20;74.00;;;;;;5109713;28;20035;-74
2023/07/25 11:18:37;;;;;;;14.15;5.05;;;37.10;73.10;;;;;;5099278;28;20027;-76
2023/07/25 11:21:05;;;;;;;14.80;5.38;;;37.30;72.90;;;;;;5099397;28;20028;-78
2023/07/25 11:23:31;;;;;;;18.23;5.78;;;37.40;74.90;;;;;;5093027;28;20482;-74
2023/07/25 11:25:59;;;;;;;20.95;5.78;;;37.20;75.20;;;;;;5094825;28;20483;-77
2023/07/25 11:28:25;;;;;;;26.52;6.25;;;37.20;74.10;;;;;;5097572;28;20035;-78
2023/07/25 11:30:51;;;;;;;15.05;5.28;;;37.30;76.40;;;;;;5093900;28;20030;-77
2023/07/25 11:33:18;;;;;;;15.13;5.53;;;37.30;76.80;;;;;;5107709;28;20114;-78
2023/07/25 11:35:45;;;;;;;18.88;6.18;;;37.10;75.80;;;;;;5108668;28;20039;-78
2023/07/25 11:38:11;;;;;;;19.08;6.00;;;36.80;75.60;;;;;;5095462;28;20032;-78
2023/07/25 11:40:40;;;;;;;16.08;5.72;;;36.80;71.90;;;;;;5095270;28;20097;-79
2023/07/25 11:43:13;;;;;;;19.08;5.50;;;36.80;73.30;;;;;;5109350;28;20085;-77
2023/07/25 11:45:39;;;;;;;11.68;5.20;;;36.50;74.30;;;;;;5114779;28;20053;-78
2023/07/25 11:48:09;;;;;;;15.93;6.07;;;36.40;74.80;;;;;;5111491;28;20073;-78
2023/07/25 11:50:38;;;;;;;17.58;6.43;;;36.20;77.30;;;;;;5095098;28;20107;-77
2023/07/25 11:53:04;;;;;;;12.27;5.72;;;36.00;77.00;;;;;;5095220;28;20039;-78
2023/07/25 11:55:31;;;;;;;18.17;5.22;;;35.70;77.30;;;;;;5094440;28;20035;-78
2023/07/25 11:58:02;;;;;;;15.30;6.57;;;35.50;78.80;;;;;;5096313;28;20039;-79
2023/07/25 12:00:38;;;;;;;;;;;35.10;82.10;;;;;;5077594;28;20028;-79
2023/07/25 12:03:14;;;;;;;22.33;9.55;;;34.40;84.70;;;;;;5102276;28;20267;-78
2023/07/25 12:05:40;;;;;;;21.30;10.75;;;33.70;98.00;;;;;;5099463;28;20032;-78
2023/07/25 12:08:06;;;;;;;23.15;10.95;;;33.20;88.30;;;;;;5094908;28;20016;-81
2023/07/25 12:10:34;;;;;;;22.55;10.25;;;;;;;;;;5108774;28;20034;-78
2023/07/25 12:13:08;;;;;;;25.98;9.75;;;32.60;91.40;;;;;;5106886;28;20047;-79
2023/07/25 12:15:45;;;;;;;20.73;10.20;;;32.40;92.60;;;;;;5102465;28;20106;-75
2023/07/25 12:18:25;;;;;;;17.92;9.45;;;32.10;94.00;;;;;;5115062;28;20031;-78
2023/07/25 12:20:51;;;;;;;19.35;9.95;;;32.00;94.80;;;;;;5114698;28;20036;-77
2023/07/25 12:23:17;;;;;;;18.35;8.95;;;32.00;94.30;;;;;;5114640;28;20035;-75
2023/07/25 12:25:43;;;;;;;21.23;9.75;;;32.30;94.70;;;;;;5115010;28;20379;-77
2023/07/25 12:28:09;;;;;;;27.90;9.98;;;32.40;93.80;;;;;;5114673;28;20023;-78
2023/07/25 12:30:35;;;;;;;19.77;8.63;;;32.40;94.60;;;;;;5114891;28;20493;-77
2023/07/25 12:33:00;;;;;;;19.60;8.43;;;32.50;93.90;;;;;;5114650;28;20445;-77
2023/07/25 12:35:27;;;;;;;18.92;9.55;;;32.50;93.60;;;;;;5093000;28;20032;-77
2023/07/25 12:37:52;;;;;;;25.33;10.43;;;32.60;93.60;;;;;;5093837;28;20028;-78